KPEZ

Pleasanton Municipal Airport

Pleasanton, Texas, USA
METAR KPEZ 231215Z AUTO 00000KT 10SM -DZ SCT008 SCT019 BKN026 11/10 A3017 RMK AO2 T01100104
Observed Flight Rules
Oct-23 @ 12:15 UTC (20 minutes ago) Marginal Visual Flight Rules
Visibility Clouds Conditions
10 miles
  • Scattered at 800' AGL
  • Scattered at 1,900' AGL
  • Broken at 2,600' AGL
  • Light Drizzle
Temperatures Readings
Current 11°C / 52°F
Dewpoint 10°C / 50°F
Humidity 94%
Altimeter 30.17" Hg
Pressure 1022 hPa
Elevation 132
METAR KPEZ 231215Z AUTO 00000KT 10SM -DZ SCT008 SCT019 BKN026 11/10 A3017 RMK AO2 T01100104
Observed Flight Rules
Oct-23 @ 12:15 UTC
(20 minutes ago)
MVFR
Clouds
  • Scattered at 800' AGL
  • Scattered at 1,900' AGL
  • Broken at 2,600' AGL
Conditions
  • Light Drizzle
Temperature Dewpoint
11°C / 52°F 10°C / 50°F
Humidity Altimeter Pressure
94% 30.17" Hg 1022 hPa